Time;durP1;ratioP1;P1;durP2;ratioP2;P2;SDS_P1;SDS_P2;PMS_P1;PMS_P2;Temp;Humidity;BMP_temperature;BMP_pressure;BME280_temperature;BME280_humidity;BME280_pressure;Samples;Min_cycle;Max_cycle;Signal;HPM_P1;HPM_P2
2023/06/05 00:00:46;;;;;;;3.10;1.60;;;;;;;-128.00;-1.00;-1.00;97643;285;1005702;-29
2023/06/05 00:03:12;;;;;;;2.60;1.60;;;;;;;-128.00;-1.00;-1.00;97621;296;1004659;-29
2023/06/05 00:05:38;;;;;;;3.10;1.40;;;;;;;-128.00;-1.00;-1.00;97580;296;1005839;-29
2023/06/05 00:08:03;;;;;;;2.40;2.00;;;;;;;-128.00;-1.00;-1.00;97691;285;1004965;-35
2023/06/05 00:10:29;;;;;;;2.20;1.40;;;;;;;-128.00;-1.00;-1.00;97785;285;1004543;-30
2023/06/05 00:12:55;;;;;;;1.40;0.90;;;;;;;-128.00;-1.00;-1.00;97550;296;1005142;-33
2023/06/05 00:15:21;;;;;;;12.80;0.90;;;;;;;-128.00;-1.00;-1.00;97593;285;1005739;-33
2023/06/05 00:17:47;;;;;;;3.40;1.10;;;;;;;-128.00;-1.00;-1.00;97672;285;1005831;-29
2023/06/05 00:20:12;;;;;;;1.90;1.00;;;;;;;-128.00;-1.00;-1.00;97637;285;1005628;-29
2023/06/05 00:22:38;;;;;;;2.10;0.90;;;;;;;-128.00;-1.00;-1.00;97726;285;1005180;-29
2023/06/05 00:25:05;;;;;;;1.60;0.90;;;;;;;-128.00;-1.00;-1.00;97688;296;1005147;-34
2023/06/05 00:27:31;;;;;;;2.40;0.70;;;;;;;-128.00;-1.00;-1.00;97668;296;1005371;-30
2023/06/05 00:29:56;;;;;;;2.20;1.00;;;;;;;-128.00;-1.00;-1.00;97857;296;1005677;-30
2023/06/05 00:32:23;;;;;;;4.10;1.10;;;;;;;-128.00;-1.00;-1.00;97685;296;1005925;-34
2023/06/05 01:13:34;;;;;;;4.30;1.60;;;;;;;-101.01;15.12;19979.75;98211;284;1545619;-28
2023/06/05 01:16:05;;;;;;;2.70;1.20;;;;;;;-128.00;-1.00;-1.00;96125;284;1004814;-30
2023/06/05 01:18:31;;;;;;;2.60;0.70;;;;;;;-128.00;-1.00;-1.00;97794;296;1004349;-33
2023/06/05 01:21:01;;;;;;;4.10;1.10;;;;;;;-128.00;-1.00;-1.00;97846;296;1003680;-29
2023/06/05 01:23:29;;;;;;;1.90;0.80;;;;;;;-128.00;-1.00;-1.00;97831;296;1003903;-31
2023/06/05 01:25:57;;;;;;;4.00;1.70;;;;;;;-128.00;-1.00;-1.00;97941;296;1004140;-33
2023/06/05 01:28:24;;;;;;;6.70;3.10;;;;;;;-128.00;-1.00;-1.00;97872;296;1003225;-29
2023/06/05 01:31:14;;;;;;;4.00;2.50;;;;;;;-128.00;-1.00;-1.00;97798;297;1003569;-29
2023/06/05 01:33:56;;;;;;;13.80;3.20;;;;;;;-128.00;-1.00;-1.00;97805;296;1005056;-33
2023/06/05 01:36:22;;;;;;;4.30;2.50;;;;;;;-128.00;-1.00;-1.00;97927;296;1004180;-33
2023/06/05 01:38:48;;;;;;;4.70;2.40;;;;;;;-128.00;-1.00;-1.00;97811;296;1003802;-34
2023/06/05 01:41:14;;;;;;;5.40;2.00;;;;;;;-128.00;-1.00;-1.00;97826;296;1004170;-33
2023/06/05 01:43:39;;;;;;;9.30;1.60;;;;;;;-128.00;-1.00;-1.00;97734;297;1002958;-29
2023/06/05 01:46:07;;;;;;;1.50;0.80;;;;;;;-128.00;-1.00;-1.00;97818;296;1003839;-33
2023/06/05 01:48:33;;;;;;;1.60;1.00;;;;;;;-128.00;-1.00;-1.00;97986;296;1002920;-28
2023/06/05 01:51:02;;;;;;;2.70;1.70;;;;;;;-128.00;-1.00;-1.00;97762;296;1003263;-31
2023/06/05 01:53:28;;;;;;;1.80;1.60;;;;;;;-128.00;-1.00;-1.00;97877;296;1004491;-33
2023/06/05 01:55:59;;;;;;;2.40;1.10;;;;;;;-128.00;-1.00;-1.00;97962;296;1003152;-32
2023/06/05 01:58:26;;;;;;;2.20;1.10;;;;;;;-128.00;-1.00;-1.00;97960;296;1002990;-30
2023/06/05 02:00:53;;;;;;;1.70;1.20;;;;;;;-128.00;-1.00;-1.00;97803;288;1004706;-29
2023/06/05 02:03:19;;;;;;;12.30;2.00;;;;;;;-128.00;-1.00;-1.00;97804;296;1002703;-29
2023/06/05 02:05:46;;;;;;;4.60;1.60;;;;;;;-128.00;-1.00;-1.00;97898;296;1003970;-30
2023/06/05 02:08:13;;;;;;;2.30;1.40;;;;;;;-128.00;-1.00;-1.00;97881;293;1003755;-29
2023/06/05 02:10:43;;;;;;;4.50;2.00;;;;;;;-128.00;-1.00;-1.00;97861;296;1003793;-28
2023/06/05 02:13:10;;;;;;;12.30;1.80;;;;;;;-128.00;-1.00;-1.00;97878;296;1004000;-30
2023/06/05 02:15:36;;;;;;;2.50;1.30;;;;;;;-128.00;-1.00;-1.00;97933;296;1003993;-34
2023/06/05 02:18:02;;;;;;;2.50;1.30;;;;;;;-128.00;-1.00;-1.00;97935;285;1003030;-29
2023/06/05 02:20:28;;;;;;;7.40;1.40;;;;;;;-128.00;-1.00;-1.00;97855;285;1004763;-28
2023/06/05 02:22:54;;;;;;;2.00;0.70;;;;;;;-128.00;-1.00;-1.00;97807;285;1003178;-28
2023/06/05 02:25:21;;;;;;;1.70;1.10;;;;;;;-128.00;-1.00;-1.00;97827;296;1003884;-30
2023/06/05 02:27:47;;;;;;;2.40;1.10;;;;;;;-128.00;-1.00;-1.00;97831;296;1003141;-33
2023/06/05 02:30:13;;;;;;;1.60;1.20;;;;;;;-128.00;-1.00;-1.00;97889;285;1003253;-33
2023/06/05 02:32:43;;;;;;;2.80;1.10;;;;;;;-128.00;-1.00;-1.00;97908;285;1004167;-28
2023/06/05 02:35:10;;;;;;;1.10;0.70;;;;;;;-128.00;-1.00;-1.00;97874;285;1002976;-29
2023/06/05 02:37:43;;;;;;;6.30;1.50;;;;;;;-128.00;-1.00;-1.00;97822;297;1003307;-31
2023/06/05 02:40:10;;;;;;;2.30;0.90;;;;;;;-128.00;-1.00;-1.00;97987;285;1004509;-33
2023/06/05 02:42:36;;;;;;;3.10;0.80;;;;;;;-128.00;-1.00;-1.00;97843;296;1004206;-30
2023/06/05 02:45:02;;;;;;;1.20;1.10;;;;;;;-128.00;-1.00;-1.00;97959;296;1004884;-34
2023/06/05 02:47:28;;;;;;;2.60;1.80;;;;;;;-128.00;-1.00;-1.00;97881;296;1003116;-29
2023/06/05 02:49:54;;;;;;;2.90;1.30;;;;;;;-128.00;-1.00;-1.00;97817;285;1003204;-28
2023/06/05 02:52:20;;;;;;;3.10;2.00;;;;;;;-128.00;-1.00;-1.00;97880;296;1005553;-32
2023/06/05 02:54:46;;;;;;;7.70;2.00;;;;;;;-128.00;-1.00;-1.00;97941;285;1003744;-29
2023/06/05 02:57:12;;;;;;;2.30;0.90;;;;;;;-128.00;-1.00;-1.00;97892;296;1003181;-33
2023/06/05 02:59:39;;;;;;;2.30;1.00;;;;;;;-128.00;-1.00;-1.00;97813;297;1003164;-30
2023/06/05 03:02:05;;;;;;;3.30;0.80;;;;;;;-128.00;-1.00;-1.00;97924;284;1003086;-28
2023/06/05 03:04:32;;;;;;;1.30;0.50;;;;;;;-128.00;-1.00;-1.00;97985;296;1003986;-31
2023/06/05 03:07:02;;;;;;;2.20;1.20;;;;;;;-128.00;-1.00;-1.00;97823;285;1002664;-30
2023/06/05 03:09:28;;;;;;;1.50;0.80;;;;;;;-128.00;-1.00;-1.00;97823;296;1003499;-29
2023/06/05 03:11:54;;;;;;;9.90;1.10;;;;;;;-128.00;-1.00;-1.00;97858;285;1002903;-30
2023/06/05 03:14:20;;;;;;;2.20;0.80;;;;;;;-128.00;-1.00;-1.00;97989;296;1004267;-34
2023/06/05 03:16:45;;;;;;;1.90;0.70;;;;;;;-128.00;-1.00;-1.00;97872;285;1004777;-29
2023/06/05 03:19:11;;;;;;;7.50;2.10;;;;;;;-128.00;-1.00;-1.00;97855;296;1004666;-30
2023/06/05 03:21:41;;;;;;;2.30;0.80;;;;;;;-128.00;-1.00;-1.00;97823;285;1005331;-35
2023/06/05 03:24:12;;;;;;;4.10;1.20;;;;;;;-128.00;-1.00;-1.00;97885;296;1003354;-37
2023/06/05 03:26:39;;;;;;;7.90;1.80;;;;;;;-128.00;-1.00;-1.00;97794;285;1002904;-35
2023/06/05 03:29:05;;;;;;;3.20;1.50;;;;;;;-128.00;-1.00;-1.00;97847;285;1003491;-32
2023/06/05 03:31:31;;;;;;;4.10;1.40;;;;;;;-128.00;-1.00;-1.00;97836;296;1003550;-31
2023/06/05 03:33:58;;;;;;;6.10;1.90;;;;;;;-128.00;-1.00;-1.00;97850;285;1002823;-29
2023/06/05 03:36:24;;;;;;;2.10;1.30;;;;;;;-128.00;-1.00;-1.00;97887;285;1003009;-35
2023/06/05 03:38:50;;;;;;;4.30;1.90;;;;;;;-128.00;-1.00;-1.00;97865;296;1003675;-30
2023/06/05 03:41:15;;;;;;;5.00;1.20;;;;;;;-128.00;-1.00;-1.00;97904;285;1004049;-30
2023/06/05 03:43:41;;;;;;;10.40;1.80;;;;;;;-128.00;-1.00;-1.00;97862;285;1003161;-30
2023/06/05 03:46:07;;;;;;;4.70;2.20;;;;;;;-128.00;-1.00;-1.00;97840;285;1003760;-29
2023/06/05 03:48:33;;;;;;;3.20;2.00;;;;;;;-128.00;-1.00;-1.00;97919;296;1004017;-35
2023/06/05 03:51:00;;;;;;;9.80;2.40;;;;;;;-128.00;-1.00;-1.00;97835;285;1003194;-30
2023/06/05 03:53:29;;;;;;;3.60;3.00;;;;;;;-128.00;-1.00;-1.00;97938;296;1003642;-33
2023/06/05 03:55:56;;;;;;;5.90;2.70;;;;;;;-128.00;-1.00;-1.00;97893;285;1005544;-35
2023/06/05 03:58:23;;;;;;;6.00;3.00;;;;;;;-128.00;-1.00;-1.00;97740;296;1002783;-35
2023/06/05 04:00:48;;;;;;;6.10;2.40;;;;;;;-128.00;-1.00;-1.00;97869;297;1004245;-29
2023/06/05 04:03:14;;;;;;;5.40;3.60;;;;;;;-128.00;-1.00;-1.00;97821;296;1005685;-28
2023/06/05 04:05:40;;;;;;;4.40;2.00;;;;;;;-128.00;-1.00;-1.00;97951;296;1005039;-33
2023/06/05 04:08:10;;;;;;;14.50;2.80;;;;;;;-128.00;-1.00;-1.00;97081;296;1003818;-33
2023/06/05 04:10:36;;;;;;;6.10;2.20;;;;;;;-128.00;-1.00;-1.00;97751;285;1004311;-38
2023/06/05 04:13:02;;;;;;;12.40;2.80;;;;;;;-128.00;-1.00;-1.00;97212;296;1004043;-30
2023/06/05 04:15:28;;;;;;;8.00;2.40;;;;;;;-128.00;-1.00;-1.00;97700;285;1004817;-30
2023/06/05 04:17:55;;;;;;;5.10;2.40;;;;;;;-128.00;-1.00;-1.00;96290;285;1004398;-29
2023/06/05 04:20:20;;;;;;;2.70;2.30;;;;;;;-128.00;-1.00;-1.00;97876;296;1002687;-32
2023/06/05 04:22:46;;;;;;;2.80;2.10;;;;;;;-128.00;-1.00;-1.00;97153;285;1003594;-33
2023/06/05 04:25:12;;;;;;;4.90;3.00;;;;;;;-128.00;-1.00;-1.00;97624;296;1004850;-29
2023/06/05 04:27:38;;;;;;;5.60;1.90;;;;;;;-128.00;-1.00;-1.00;97708;285;1004880;-36
2023/06/05 04:30:06;;;;;;;4.40;2.00;;;;;;;-128.00;-1.00;-1.00;97693;296;1005174;-33
2023/06/05 04:32:34;;;;;;;2.80;2.10;;;;;;;-128.00;-1.00;-1.00;97719;296;1005089;-31
2023/06/05 04:35:01;;;;;;;4.10;2.40;;;;;;;-128.00;-1.00;-1.00;97585;296;1004932;-30
2023/06/05 04:37:26;;;;;;;14.70;2.70;;;;;;;-128.00;-1.00;-1.00;97574;285;1005120;-31
2023/06/05 04:39:52;;;;;;;4.20;3.20;;;;;;;-128.00;-1.00;-1.00;97605;296;1005986;-31
2023/06/05 04:42:18;;;;;;;3.80;2.60;;;;;;;-128.00;-1.00;-1.00;97625;296;1005687;-31
2023/06/05 04:44:44;;;;;;;8.30;3.10;;;;;;;-128.00;-1.00;-1.00;97677;296;1005680;-34
2023/06/05 04:47:10;;;;;;;9.40;2.50;;;;;;;-128.00;-1.00;-1.00;97620;285;1005225;-34
2023/06/05 04:49:36;;;;;;;5.10;2.70;;;;;;;-128.00;-1.00;-1.00;97588;296;1004046;-29
2023/06/05 04:52:02;;;;;;;4.60;2.20;;;;;;;-128.00;-1.00;-1.00;97669;296;1005057;-36
2023/06/05 04:54:28;;;;;;;2.70;2.00;;;;;;;-128.00;-1.00;-1.00;97769;296;1005703;-34
2023/06/05 04:56:53;;;;;;;3.50;1.80;;;;;;;-128.00;-1.00;-1.00;97635;296;1005635;-35
2023/06/05 04:59:19;;;;;;;3.50;2.20;;;;;;;-128.00;-1.00;-1.00;97809;296;1005808;-30
2023/06/05 05:01:45;;;;;;;3.60;2.60;;;;;;;-128.00;-1.00;-1.00;97818;285;1004704;-35
2023/06/05 05:04:11;;;;;;;7.30;2.20;;;;;;;-128.00;-1.00;-1.00;97639;285;1005706;-31
2023/06/05 05:06:38;;;;;;;4.10;2.20;;;;;;;-128.00;-1.00;-1.00;97484;296;1004436;-30
2023/06/05 05:09:04;;;;;;;9.90;2.20;;;;;;;-128.00;-1.00;-1.00;97642;296;1005559;-33
2023/06/05 05:11:30;;;;;;;4.00;2.00;;;;;;;-128.00;-1.00;-1.00;97722;285;1005420;-34
2023/06/05 05:13:55;;;;;;;6.70;2.60;;;;;;;-128.00;-1.00;-1.00;97703;296;1005492;-33
2023/06/05 05:16:22;;;;;;;16.80;1.70;;;;;;;-128.00;-1.00;-1.00;97613;285;1005530;-34
2023/06/05 05:18:48;;;;;;;13.70;1.70;;;;;;;-128.00;-1.00;-1.00;97612;297;1004934;-33
2023/06/05 05:21:13;;;;;;;4.30;1.80;;;;;;;-128.00;-1.00;-1.00;97713;285;1005104;-37
2023/06/05 05:23:39;;;;;;;5.30;1.60;;;;;;;-128.00;-1.00;-1.00;97659;285;1006452;-31
2023/06/05 05:26:06;;;;;;;2.80;1.80;;;;;;;-128.00;-1.00;-1.00;97687;296;1004637;-32
2023/06/05 05:28:33;;;;;;;3.00;2.00;;;;;;;-128.00;-1.00;-1.00;97664;296;1004753;-36
2023/06/05 05:30:58;;;;;;;3.80;2.00;;;;;;;-128.00;-1.00;-1.00;97548;297;1005678;-33
2023/06/05 05:33:24;;;;;;;5.80;1.60;;;;;;;-128.00;-1.00;-1.00;97722;285;1004997;-35
2023/06/05 05:35:50;;;;;;;5.60;1.70;;;;;;;-128.00;-1.00;-1.00;97644;285;1004403;-31
2023/06/05 05:38:16;;;;;;;9.50;1.80;;;;;;;-128.00;-1.00;-1.00;97669;285;1005789;-37
2023/06/05 05:40:41;;;;;;;3.70;1.30;;;;;;;-128.00;-1.00;-1.00;97576;296;1005603;-37
2023/06/05 05:43:07;;;;;;;3.40;1.80;;;;;;;-128.00;-1.00;-1.00;97516;285;1005415;-36
2023/06/05 05:45:33;;;;;;;4.80;1.30;;;;;;;-128.00;-1.00;-1.00;97577;296;1004357;-33
2023/06/05 05:47:59;;;;;;;2.90;1.50;;;;;;;-128.00;-1.00;-1.00;97657;296;1005159;-32
2023/06/05 05:50:24;;;;;;;3.40;1.50;;;;;;;-128.00;-1.00;-1.00;97597;296;1005566;-33
2023/06/05 05:52:52;;;;;;;2.50;1.30;;;;;;;-128.00;-1.00;-1.00;97521;296;1005170;-31
2023/06/05 05:55:18;;;;;;;1.90;1.10;;;;;;;-128.00;-1.00;-1.00;97585;296;1004963;-32
2023/06/05 05:57:44;;;;;;;3.70;1.80;;;;;;;-128.00;-1.00;-1.00;97566;297;1005814;-33
2023/06/05 06:00:12;;;;;;;2.50;1.00;;;;;;;-128.00;-1.00;-1.00;97584;285;1005569;-36
2023/06/05 06:02:39;;;;;;;3.30;1.30;;;;;;;-128.00;-1.00;-1.00;97619;296;1005264;-31
2023/06/05 06:05:05;;;;;;;2.50;1.40;;;;;;;-128.00;-1.00;-1.00;97619;285;1004771;-31
2023/06/05 06:07:31;;;;;;;3.00;1.30;;;;;;;-128.00;-1.00;-1.00;97694;285;1004218;-34
2023/06/05 06:09:58;;;;;;;2.60;1.20;;;;;;;-128.00;-1.00;-1.00;97692;285;1005229;-33
2023/06/05 06:12:24;;;;;;;1.70;1.00;;;;;;;-128.00;-1.00;-1.00;97687;285;1005451;-37
2023/06/05 06:14:50;;;;;;;3.80;1.30;;;;;;;-128.00;-1.00;-1.00;97671;285;1004354;-35
2023/06/05 06:17:16;;;;;;;3.10;1.40;;;;;;;-128.00;-1.00;-1.00;97662;285;1005958;-35
2023/06/05 06:19:42;;;;;;;1.60;1.10;;;;;;;-128.00;-1.00;-1.00;97678;296;1004368;-32
2023/06/05 06:22:11;;;;;;;3.20;1.30;;;;;;;-128.00;-1.00;-1.00;97588;296;1005190;-35
2023/06/05 06:24:41;;;;;;;3.40;1.20;;;;;;;-128.00;-1.00;-1.00;97591;285;1004256;-32
2023/06/05 06:27:09;;;;;;;2.40;1.40;;;;;;;-128.00;-1.00;-1.00;97678;296;1005657;-35
2023/06/05 06:29:48;;;;;;;3.90;1.10;;;;;;;-128.00;-1.00;-1.00;97693;296;1004712;-39
2023/06/05 06:32:16;;;;;;;14.70;1.40;;;;;;;-128.00;-1.00;-1.00;97711;285;1005602;-31
2023/06/05 06:34:44;;;;;;;7.60;1.30;;;;;;;-128.00;-1.00;-1.00;97602;297;1005241;-35
2023/06/05 06:37:15;;;;;;;2.80;1.30;;;;;;;-128.00;-1.00;-1.00;97660;285;1005237;-32
2023/06/05 06:39:43;;;;;;;2.70;1.30;;;;;;;-128.00;-1.00;-1.00;97685;285;1005507;-32
2023/06/05 06:42:10;;;;;;;2.70;0.80;;;;;;;-128.00;-1.00;-1.00;97739;289;1005267;-32
2023/06/05 06:44:36;;;;;;;2.40;1.40;;;;;;;-128.00;-1.00;-1.00;97593;285;1004817;-32
2023/06/05 06:47:02;;;;;;;2.90;1.90;;;;;;;-128.00;-1.00;-1.00;97490;296;1005078;-32
2023/06/05 06:49:28;;;;;;;2.40;1.10;;;;;;;-128.00;-1.00;-1.00;97603;285;1005568;-35
2023/06/05 06:51:54;;;;;;;1.60;1.00;;;;;;;-128.00;-1.00;-1.00;97655;285;1005591;-35
2023/06/05 06:54:20;;;;;;;2.10;1.20;;;;;;;-128.00;-1.00;-1.00;97624;285;1004950;-31
2023/06/05 06:56:46;;;;;;;1.70;0.80;;;;;;;-128.00;-1.00;-1.00;97627;285;1005305;-34
2023/06/05 06:59:13;;;;;;;2.70;1.00;;;;;;;-128.00;-1.00;-1.00;97788;285;1005641;-32
2023/06/05 07:01:43;;;;;;;5.40;1.30;;;;;;;-128.00;-1.00;-1.00;97670;296;1004696;-35
2023/06/05 07:04:09;;;;;;;1.90;0.80;;;;;;;-128.00;-1.00;-1.00;97751;285;1004376;-31
2023/06/05 07:06:35;;;;;;;2.10;1.20;;;;;;;-128.00;-1.00;-1.00;97613;285;1004784;-31
2023/06/05 07:09:00;;;;;;;2.30;1.40;;;;;;;-128.00;-1.00;-1.00;97617;285;1004367;-35
2023/06/05 07:11:26;;;;;;;4.40;1.20;;;;;;;-128.00;-1.00;-1.00;97813;296;1005577;-35
2023/06/05 07:13:54;;;;;;;1.70;1.00;;;;;;;-128.00;-1.00;-1.00;97623;296;1004538;-35
2023/06/05 07:16:20;;;;;;;2.50;0.90;;;;;;;-128.00;-1.00;-1.00;97540;285;1007016;-34
2023/06/05 07:18:45;;;;;;;6.90;1.20;;;;;;;-128.00;-1.00;-1.00;97622;296;1005174;-37
2023/06/05 07:21:12;;;;;;;2.00;0.80;;;;;;;-128.00;-1.00;-1.00;97651;296;1004422;-39
2023/06/05 07:23:39;;;;;;;2.20;1.20;;;;;;;-128.00;-1.00;-1.00;97558;297;1005314;-36
2023/06/05 07:26:04;;;;;;;1.80;1.00;;;;;;;-128.00;-1.00;-1.00;97628;285;1005056;-35
2023/06/05 07:28:31;;;;;;;4.60;0.80;;;;;;;-128.00;-1.00;-1.00;97675;296;1004580;-32
2023/06/05 07:31:03;;;;;;;1.40;0.80;;;;;;;-128.00;-1.00;-1.00;97637;285;1005024;-35
2023/06/05 07:33:28;;;;;;;2.30;0.60;;;;;;;-128.00;-1.00;-1.00;97648;297;1005965;-32
2023/06/05 07:35:54;;;;;;;1.20;0.60;;;;;;;-128.00;-1.00;-1.00;97627;296;1005666;-35
2023/06/05 07:38:20;;;;;;;1.40;0.70;;;;;;;-128.00;-1.00;-1.00;97584;285;1005174;-32
2023/06/05 07:40:46;;;;;;;12.20;1.00;;;;;;;-128.00;-1.00;-1.00;97589;285;1004112;-36
2023/06/05 07:43:14;;;;;;;2.00;0.80;;;;;;;-128.00;-1.00;-1.00;97642;285;1005056;-39
2023/06/05 07:45:40;;;;;;;1.30;0.60;;;;;;;-128.00;-1.00;-1.00;97623;285;1005945;-34
2023/06/05 07:48:06;;;;;;;3.70;1.10;;;;;;;-128.00;-1.00;-1.00;97659;296;1004736;-34
2023/06/05 07:50:32;;;;;;;6.20;1.20;;;;;;;-128.00;-1.00;-1.00;97573;296;1005158;-32
2023/06/05 07:52:57;;;;;;;1.30;0.60;;;;;;;-128.00;-1.00;-1.00;97599;285;1005547;-32
2023/06/05 07:55:23;;;;;;;1.70;0.80;;;;;;;-128.00;-1.00;-1.00;97602;285;1005237;-36
2023/06/05 07:57:48;;;;;;;1.50;0.80;;;;;;;-128.00;-1.00;-1.00;97616;285;1005775;-36
2023/06/05 08:00:17;;;;;;;0.90;0.60;;;;;;;-128.00;-1.00;-1.00;97685;285;1004938;-31
2023/06/05 08:02:43;;;;;;;1.00;0.50;;;;;;;-128.00;-1.00;-1.00;97559;296;1004219;-35
2023/06/05 08:05:09;;;;;;;3.70;0.80;;;;;;;-128.00;-1.00;-1.00;97540;285;1005115;-35
2023/06/05 08:07:35;;;;;;;9.30;0.80;;;;;;;-128.00;-1.00;-1.00;97623;298;1004477;-36
2023/06/05 08:10:01;;;;;;;3.40;0.70;;;;;;;-128.00;-1.00;-1.00;97650;296;1005541;-29
2023/06/05 08:12:26;;;;;;;1.90;0.70;;;;;;;-128.00;-1.00;-1.00;97709;285;1004656;-36
2023/06/05 08:14:52;;;;;;;3.60;0.90;;;;;;;-128.00;-1.00;-1.00;97555;296;1005206;-35
2023/06/05 08:17:18;;;;;;;4.00;0.40;;;;;;;-128.00;-1.00;-1.00;97634;296;1005528;-35
2023/06/05 08:19:43;;;;;;;0.90;0.30;;;;;;;-128.00;-1.00;-1.00;97599;296;1004677;-35
2023/06/05 08:22:09;;;;;;;1.20;0.70;;;;;;;-128.00;-1.00;-1.00;97577;285;1005651;-35
2023/06/05 08:24:36;;;;;;;1.20;0.30;;;;;;;-128.00;-1.00;-1.00;97578;296;1004949;-30
2023/06/05 08:27:01;;;;;;;0.50;0.20;;;;;;;-128.00;-1.00;-1.00;97722;296;1005595;-35
2023/06/05 08:29:27;;;;;;;1.00;0.50;;;;;;;-128.00;-1.00;-1.00;97584;285;1005452;-35
2023/06/05 08:31:55;;;;;;;4.80;0.70;;;;;;;-128.00;-1.00;-1.00;97569;296;1005631;-38
2023/06/05 08:34:21;;;;;;;2.20;0.90;;;;;;;-128.00;-1.00;-1.00;97664;285;1004196;-33
2023/06/05 08:36:46;;;;;;;1.90;1.00;;;;;;;-128.00;-1.00;-1.00;97701;285;1004936;-35
2023/06/05 08:39:13;;;;;;;0.50;0.40;;;;;;;-128.00;-1.00;-1.00;97673;296;1005075;-32
2023/06/05 08:41:39;;;;;;;2.90;0.80;;;;;;;-128.00;-1.00;-1.00;97607;285;1005481;-32
2023/06/05 08:44:04;;;;;;;1.10;0.60;;;;;;;-128.00;-1.00;-1.00;97662;285;1004900;-31
2023/06/05 08:46:31;;;;;;;1.20;0.50;;;;;;;-128.00;-1.00;-1.00;97692;285;1005234;-32
2023/06/05 08:48:57;;;;;;;1.00;0.60;;;;;;;-128.00;-1.00;-1.00;97650;296;1005618;-32
2023/06/05 08:51:22;;;;;;;0.80;0.60;;;;;;;-128.00;-1.00;-1.00;97680;285;1005311;-35
2023/06/05 08:53:54;;;;;;;10.40;0.80;;;;;;;-128.00;-1.00;-1.00;97562;285;1004666;-32
2023/06/05 08:56:19;;;;;;;1.10;0.60;;;;;;;-128.00;-1.00;-1.00;97761;285;1005463;-32
2023/06/05 08:58:45;;;;;;;6.20;0.70;;;;;;;-128.00;-1.00;-1.00;97684;285;1005646;-31
2023/06/05 09:01:11;;;;;;;2.70;0.80;;;;;;;-128.00;-1.00;-1.00;97678;296;1004903;-36
2023/06/05 09:03:37;;;;;;;1.70;0.60;;;;;;;-128.00;-1.00;-1.00;97764;296;1005297;-31
2023/06/05 09:06:04;;;;;;;2.10;0.70;;;;;;;-128.00;-1.00;-1.00;97697;285;1005138;-35
2023/06/05 09:08:32;;;;;;;6.00;0.60;;;;;;;-128.00;-1.00;-1.00;97617;296;1005693;-32
2023/06/05 09:11:22;;;;;;;1.20;0.40;;;;;;;-128.00;-1.00;-1.00;97652;289;1004580;-35
2023/06/05 09:13:48;;;;;;;1.20;0.70;;;;;;;-128.00;-1.00;-1.00;97472;296;1005277;-37
2023/06/05 09:16:14;;;;;;;1.90;1.00;;;;;;;-128.00;-1.00;-1.00;97061;285;1004781;-37
2023/06/05 09:18:55;;;;;;;2.30;1.00;;;;;;;-128.00;-1.00;-1.00;97665;296;1004528;-34
2023/06/05 09:21:28;;;;;;;0.60;0.40;;;;;;;-128.00;-1.00;-1.00;97760;296;1005568;-32
2023/06/05 09:24:11;;;;;;;2.00;0.70;;;;;;;-128.00;-1.00;-1.00;97565;285;1004711;-31
2023/06/05 09:26:53;;;;;;;1.50;0.70;;;;;;;-128.00;-1.00;-1.00;97594;296;1004266;-35
2023/06/05 09:29:20;;;;;;;0.70;0.30;;;;;;;-128.00;-1.00;-1.00;97682;285;1004638;-35
2023/06/05 09:31:46;;;;;;;1.30;0.70;;;;;;;-128.00;-1.00;-1.00;97598;285;1004642;-33
2023/06/05 09:34:23;;;;;;;1.10;0.60;;;;;;;-128.00;-1.00;-1.00;97729;296;1005125;-36
2023/06/05 09:36:49;;;;;;;1.50;0.50;;;;;;;-128.00;-1.00;-1.00;97587;296;1005580;-32
2023/06/05 09:39:16;;;;;;;1.60;0.80;;;;;;;-128.00;-1.00;-1.00;97788;296;1005671;-32
2023/06/05 09:41:46;;;;;;;0.80;0.70;;;;;;;-128.00;-1.00;-1.00;97667;296;1005471;-37
2023/06/05 09:44:11;;;;;;;0.90;0.70;;;;;;;-128.00;-1.00;-1.00;97615;285;1005402;-32
2023/06/05 09:46:57;;;;;;;1.00;0.70;;;;;;;-128.00;-1.00;-1.00;97797;296;1005909;-35
2023/06/05 09:49:29;;;;;;;2.10;0.60;;;;;;;-128.00;-1.00;-1.00;97618;285;1005932;-32
2023/06/05 09:51:55;;;;;;;0.80;0.50;;;;;;;-128.00;-1.00;-1.00;97641;285;1005521;-35
2023/06/05 09:54:22;;;;;;;1.70;1.10;;;;;;;-128.00;-1.00;-1.00;97673;296;1005688;-35
2023/06/05 09:56:48;;;;;;;1.00;0.70;;;;;;;-128.00;-1.00;-1.00;97588;296;1005075;-32
2023/06/05 09:59:18;;;;;;;5.60;0.90;;;;;;;-128.00;-1.00;-1.00;97563;296;1005001;-32
2023/06/05 10:01:44;;;;;;;1.40;0.70;;;;;;;-128.00;-1.00;-1.00;97543;285;1005696;-36
2023/06/05 10:04:11;;;;;;;1.80;0.90;;;;;;;-128.00;-1.00;-1.00;97745;296;1005272;-32
2023/06/05 10:06:36;;;;;;;4.40;0.80;;;;;;;-128.00;-1.00;-1.00;97724;296;1005604;-35
2023/06/05 10:09:02;;;;;;;1.00;0.70;;;;;;;-128.00;-1.00;-1.00;97657;296;1004241;-35
2023/06/05 10:11:28;;;;;;;1.10;0.50;;;;;;;-128.00;-1.00;-1.00;97661;296;1005177;-35
2023/06/05 10:13:54;;;;;;;1.10;0.60;;;;;;;-128.00;-1.00;-1.00;97724;296;1004810;-36
2023/06/05 10:16:20;;;;;;;9.90;0.80;;;;;;;-128.00;-1.00;-1.00;97753;285;1006067;-32
2023/06/05 10:18:47;;;;;;;11.80;1.10;;;;;;;-128.00;-1.00;-1.00;97611;285;1005037;-36
2023/06/05 10:21:16;;;;;;;1.60;0.70;;;;;;;-128.00;-1.00;-1.00;97647;285;1004860;-34
2023/06/05 10:23:49;;;;;;;3.80;1.00;;;;;;;-128.00;-1.00;-1.00;97714;296;1005315;-31
2023/06/05 10:26:22;;;;;;;1.80;0.90;;;;;;;-128.00;-1.00;-1.00;97796;285;1005313;-35
2023/06/05 10:28:56;;;;;;;2.80;0.60;;;;;;;-128.00;-1.00;-1.00;97737;296;1005162;-37
2023/06/05 10:31:29;;;;;;;5.90;0.90;;;;;;;-128.00;-1.00;-1.00;97616;296;1005413;-35
2023/06/05 10:34:19;;;;;;;0.90;0.30;;;;;;;-128.00;-1.00;-1.00;97664;285;1005286;-38
2023/06/05 10:37:03;;;;;;;1.50;0.90;;;;;;;-128.00;-1.00;-1.00;97829;296;1005369;-35
2023/06/05 10:39:29;;;;;;;1.70;0.70;;;;;;;-128.00;-1.00;-1.00;97647;285;1005690;-35
2023/06/05 10:41:56;;;;;;;3.40;0.80;;;;;;;-128.00;-1.00;-1.00;97586;296;1005072;-35
2023/06/05 10:44:41;;;;;;;1.90;0.70;;;;;;;-128.00;-1.00;-1.00;97646;296;1005394;-33
2023/06/05 10:47:30;;;;;;;2.10;0.90;;;;;;;-128.00;-1.00;-1.00;97577;296;1005478;-33
2023/06/05 10:50:21;;;;;;;1.20;0.70;;;;;;;-128.00;-1.00;-1.00;97749;285;1005135;-31
2023/06/05 10:52:47;;;;;;;0.90;0.70;;;;;;;-128.00;-1.00;-1.00;97743;296;1005289;-36
2023/06/05 10:55:15;;;;;;;1.00;0.70;;;;;;;-128.00;-1.00;-1.00;97646;285;1004689;-32
2023/06/05 10:58:07;;;;;;;0.70;0.50;;;;;;;-128.00;-1.00;-1.00;97516;285;1004978;-33
2023/06/05 11:00:33;;;;;;;1.80;1.00;;;;;;;-128.00;-1.00;-1.00;97662;296;1004774;-34
2023/06/05 11:03:00;;;;;;;7.00;4.00;;;;;;;-128.00;-1.00;-1.00;97776;285;1004670;-35
2023/06/05 11:05:26;;;;;;;5.60;0.60;;;;;;;-128.00;-1.00;-1.00;97560;285;1004541;-36
2023/06/05 11:08:15;;;;;;;5.10;0.70;;;;;;;-128.00;-1.00;-1.00;97614;296;1005306;-33
2023/06/05 11:11:05;;;;;;;1.60;0.90;;;;;;;-128.00;-1.00;-1.00;97724;285;1004434;-36
2023/06/05 11:13:55;;;;;;;2.80;1.10;;;;;;;-128.00;-1.00;-1.00;97653;296;1004401;-32
2023/06/05 11:16:31;;;;;;;2.90;0.70;;;;;;;-128.00;-1.00;-1.00;97651;296;1005832;-32
2023/06/05 11:19:29;;;;;;;4.40;0.80;;;;;;;-128.00;-1.00;-1.00;97782;285;1004635;-31
2023/06/05 11:22:07;;;;;;;2.80;1.00;;;;;;;-128.00;-1.00;-1.00;97727;296;1004179;-35
2023/06/05 11:24:34;;;;;;;1.80;0.90;;;;;;;-128.00;-1.00;-1.00;97579;296;1004704;-31
2023/06/05 11:27:00;;;;;;;2.60;1.50;;;;;;;-128.00;-1.00;-1.00;97662;289;1004326;-35
2023/06/05 11:29:26;;;;;;;1.40;0.60;;;;;;;-128.00;-1.00;-1.00;97540;296;1005642;-36
2023/06/05 11:31:52;;;;;;;0.90;0.60;;;;;;;-128.00;-1.00;-1.00;97564;285;1004564;-32
2023/06/05 11:34:18;;;;;;;1.30;0.80;;;;;;;-128.00;-1.00;-1.00;97544;285;1006162;-35
2023/06/05 11:36:44;;;;;;;0.40;0.40;;;;;;;-128.00;-1.00;-1.00;97634;285;1004866;-37
2023/06/05 11:39:10;;;;;;;5.50;1.00;;;;;;;-128.00;-1.00;-1.00;97635;296;1005269;-36
2023/06/05 11:41:43;;;;;;;0.90;0.50;;;;;;;-128.00;-1.00;-1.00;97701;285;1006279;-32
2023/06/05 11:44:09;;;;;;;1.90;0.90;;;;;;;-128.00;-1.00;-1.00;97578;285;1004710;-31
2023/06/05 11:46:37;;;;;;;1.60;0.80;;;;;;;-128.00;-1.00;-1.00;97635;296;1005372;-32
2023/06/05 11:49:04;;;;;;;6.80;0.50;;;;;;;-128.00;-1.00;-1.00;97607;285;1004644;-31
2023/06/05 11:51:34;;;;;;;1.70;0.70;;;;;;;-128.00;-1.00;-1.00;97714;296;1004648;-32
2023/06/05 11:54:01;;;;;;;1.30;0.50;;;;;;;-128.00;-1.00;-1.00;97804;285;1005735;-36
2023/06/05 11:56:27;;;;;;;2.30;0.70;;;;;;;-128.00;-1.00;-1.00;97631;285;1005139;-32
2023/06/05 11:58:53;;;;;;;1.10;0.80;;;;;;;-128.00;-1.00;-1.00;97717;296;1004987;-35
2023/06/05 12:03:49;;;;;;;2.70;1.00;;;;;;;-128.00;-1.00;-1.00;97561;285;1004138;-34
2023/06/05 12:06:17;;;;;;;3.90;0.50;;;;;;;-128.00;-1.00;-1.00;97749;296;1004305;-36
2023/06/05 12:08:44;;;;;;;5.80;0.80;;;;;;;-128.00;-1.00;-1.00;97680;296;1005085;-31
2023/06/05 12:11:28;;;;;;;3.40;1.20;;;;;;;-128.00;-1.00;-1.00;97610;285;1004245;-35
2023/06/05 12:13:54;;;;;;;1.40;0.50;;;;;;;-128.00;-1.00;-1.00;97727;285;1005268;-39
2023/06/05 12:16:33;;;;;;;10.00;1.30;;;;;;;-128.00;-1.00;-1.00;97624;296;1005623;-37
2023/06/05 12:18:59;;;;;;;1.90;0.90;;;;;;;-128.00;-1.00;-1.00;97610;296;1005108;-35